createdAt,value
2023-04-07T00:00:22.850Z,7.80
2023-04-07T00:02:55.906Z,7.80
2023-04-07T00:05:28.774Z,7.80
2023-04-07T00:08:01.489Z,7.70
2023-04-07T00:10:34.703Z,7.80
2023-04-07T00:13:07.486Z,7.70
2023-04-07T00:15:40.631Z,7.70
2023-04-07T00:18:13.373Z,7.70
2023-04-07T00:20:46.167Z,7.60
2023-04-07T00:23:19.750Z,7.60
2023-04-07T00:25:52.728Z,7.60
2023-04-07T00:28:25.611Z,7.60
2023-04-07T00:30:58.418Z,7.60
2023-04-07T00:33:31.351Z,7.50
2023-04-07T00:36:04.601Z,7.50
2023-04-07T00:38:37.354Z,7.50
2023-04-07T00:41:10.566Z,7.40
2023-04-07T00:43:43.846Z,7.30
2023-04-07T00:46:17.051Z,7.30
2023-04-07T00:48:50.166Z,7.20
2023-04-07T00:51:23.055Z,7.20
2023-04-07T00:53:56.251Z,7.10
2023-04-07T00:56:29.716Z,7.10
2023-04-07T00:59:05.192Z,7.10
2023-04-07T01:01:48.340Z,7.10
2023-04-07T01:04:33.269Z,7.00
2023-04-07T01:07:11.843Z,7.00
2023-04-07T01:10:00.402Z,6.90
2023-04-07T01:12:46.651Z,6.80
2023-04-07T01:15:24.137Z,6.70
2023-04-07T01:18:24.375Z,6.60
2023-04-07T01:21:03.601Z,6.50
2023-04-07T01:23:48.331Z,6.50
2023-04-07T01:26:30.563Z,6.50
2023-04-07T01:29:31.275Z,6.40
2023-04-07T01:32:06.340Z,6.40
2023-04-07T01:34:41.954Z,6.40
2023-04-07T01:37:15.939Z,6.40
2023-04-07T01:39:48.951Z,6.40
2023-04-07T01:42:22.640Z,6.40
2023-04-07T01:44:57.422Z,6.50
2023-04-07T01:47:31.880Z,6.50
2023-04-07T01:50:06.397Z,6.50
2023-04-07T01:52:40.319Z,6.60
2023-04-07T01:55:13.391Z,6.70
2023-04-07T01:57:54.811Z,6.70
2023-04-07T02:00:31.792Z,6.80
2023-04-07T02:03:20.619Z,6.90
2023-04-07T02:05:57.543Z,6.90
2023-04-07T02:08:36.209Z,7.00
2023-04-07T02:11:11.575Z,7.00
2023-04-07T02:13:45.934Z,7.10
2023-04-07T02:16:20.813Z,7.00
2023-04-07T02:18:54.109Z,7.10
2023-04-07T02:21:30.275Z,7.10
2023-04-07T02:24:06.671Z,7.10
2023-04-07T02:26:39.533Z,7.10
2023-04-07T02:29:12.220Z,7.20
2023-04-07T02:31:45.346Z,7.20
2023-04-07T02:34:18.090Z,7.20
2023-04-07T02:36:51.125Z,7.20
2023-04-07T02:39:23.821Z,7.20
2023-04-07T02:41:56.818Z,7.20
2023-04-07T02:44:29.577Z,7.20
2023-04-07T02:47:02.429Z,7.20
2023-04-07T02:49:35.102Z,7.20
2023-04-07T02:52:08.804Z,7.20
2023-04-07T02:54:41.563Z,7.20
2023-04-07T02:57:16.105Z,7.20
2023-04-07T02:59:48.905Z,7.30
2023-04-07T03:02:21.875Z,7.30
2023-04-07T03:04:54.607Z,7.30
2023-04-07T03:07:33.884Z,7.30
2023-04-07T03:10:07.658Z,7.30
2023-04-07T03:12:40.577Z,7.30
2023-04-07T03:15:13.283Z,7.30
2023-04-07T03:17:51.750Z,7.30
2023-04-07T03:20:24.662Z,7.30
2023-04-07T03:22:57.414Z,7.30
2023-04-07T03:25:33.958Z,7.30
2023-04-07T03:28:08.201Z,7.30
2023-04-07T03:30:44.267Z,7.30
2023-04-07T03:33:17.847Z,7.40
2023-04-07T03:35:50.805Z,7.30
2023-04-07T03:38:23.907Z,7.30
2023-04-07T03:41:01.914Z,7.30
2023-04-07T03:43:34.861Z,7.30
2023-04-07T03:46:08.547Z,7.30
2023-04-07T03:48:41.836Z,7.40
2023-04-07T03:51:17.182Z,7.40
2023-04-07T03:53:51.974Z,7.40
2023-04-07T03:56:50.846Z,7.40
2023-04-07T03:59:28.293Z,7.40
2023-04-07T04:02:07.991Z,7.50
2023-04-07T04:04:42.022Z,7.50
2023-04-07T04:07:16.070Z,7.50
2023-04-07T04:09:56.028Z,7.50
2023-04-07T04:12:28.702Z,7.50
2023-04-07T04:15:10.738Z,7.50
2023-04-07T04:17:44.719Z,7.50
2023-04-07T04:20:18.694Z,7.40
2023-04-07T04:22:54.687Z,7.50
2023-04-07T04:25:28.035Z,7.50
2023-04-07T04:28:03.302Z,7.50
2023-04-07T04:30:36.145Z,7.50
2023-04-07T04:33:10.024Z,7.50
2023-04-07T04:35:48.576Z,7.50
2023-04-07T04:38:24.831Z,7.50
2023-04-07T04:41:07.802Z,7.50
2023-04-07T04:43:41.882Z,7.60
2023-04-07T04:46:17.448Z,7.50
2023-04-07T04:48:52.542Z,7.50
2023-04-07T04:51:27.186Z,7.50
2023-04-07T04:54:06.729Z,7.50
2023-04-07T04:56:40.150Z,7.60
2023-04-07T04:59:12.789Z,7.60
2023-04-07T05:02:06.091Z,7.60
2023-04-07T05:04:39.030Z,7.50
2023-04-07T05:07:26.029Z,7.50
2023-04-07T05:09:58.823Z,7.50
2023-04-07T05:12:32.829Z,7.40
2023-04-07T05:15:08.159Z,7.40
2023-04-07T05:17:41.540Z,7.40
2023-04-07T05:20:17.482Z,7.40
2023-04-07T05:22:51.091Z,7.30
2023-04-07T05:25:27.068Z,7.30
2023-04-07T05:28:04.625Z,7.20
2023-04-07T05:30:37.938Z,7.30
2023-04-07T05:33:11.589Z,7.20
2023-04-07T05:35:54.159Z,7.20
2023-04-07T05:38:27.389Z,7.20
2023-04-07T05:41:04.636Z,7.20
2023-04-07T05:43:40.608Z,7.20
2023-04-07T05:46:13.502Z,7.20
2023-04-07T05:48:54.627Z,7.20
2023-04-07T05:51:27.463Z,7.10
2023-04-07T05:54:03.829Z,7.20
2023-04-07T05:56:37.401Z,7.20
2023-04-07T05:59:11.522Z,7.20
2023-04-07T06:01:45.372Z,7.30
2023-04-07T06:04:18.180Z,7.30
2023-04-07T06:06:55.139Z,7.30
2023-04-07T06:09:28.023Z,7.40
2023-04-07T06:12:01.735Z,7.40
2023-04-07T06:14:34.729Z,7.40
2023-04-07T06:17:07.569Z,7.40
2023-04-07T06:19:40.454Z,7.50
2023-04-07T06:22:13.430Z,7.50
2023-04-07T06:24:46.252Z,7.50
2023-04-07T06:27:19.307Z,7.60
2023-04-07T06:29:53.978Z,7.60
2023-04-07T06:32:26.804Z,7.60
2023-04-07T06:34:59.802Z,7.70
2023-04-07T06:37:32.622Z,7.70
2023-04-07T06:40:07.495Z,7.80
2023-04-07T06:42:40.264Z,7.80
2023-04-07T06:45:22.020Z,7.90
2023-04-07T06:47:54.811Z,7.90
2023-04-07T06:50:27.830Z,7.90
2023-04-07T06:53:00.533Z,8.00
2023-04-07T06:55:33.501Z,8.00
2023-04-07T06:58:06.280Z,8.10
2023-04-07T07:00:39.142Z,8.10
2023-04-07T07:03:12.459Z,8.10
2023-04-07T07:05:45.447Z,8.20
2023-04-07T07:08:18.204Z,8.20
2023-04-07T07:10:51.181Z,8.20
2023-04-07T07:13:29.007Z,8.30
2023-04-07T07:16:02.952Z,8.30
2023-04-07T07:18:36.874Z,8.30
2023-04-07T07:21:09.716Z,8.30
2023-04-07T07:23:42.484Z,8.30
2023-04-07T07:26:15.465Z,8.30
2023-04-07T07:28:48.186Z,8.30
2023-04-07T07:31:21.029Z,8.40
2023-04-07T07:33:53.933Z,8.30
2023-04-07T07:36:26.806Z,8.40
2023-04-07T07:38:59.562Z,8.40
2023-04-07T07:41:32.411Z,8.40
2023-04-07T07:44:05.234Z,8.40
2023-04-07T07:46:38.135Z,8.30
2023-04-07T07:49:10.894Z,8.20
2023-04-07T07:51:43.779Z,8.20
2023-04-07T07:54:16.491Z,8.20
2023-04-07T07:56:49.316Z,8.20
2023-04-07T07:59:22.005Z,8.20
2023-04-07T08:01:54.820Z,8.20
2023-04-07T08:04:27.708Z,8.20
2023-04-07T08:07:00.650Z,8.20
2023-04-07T08:09:33.456Z,8.20
2023-04-07T08:12:06.311Z,8.20
2023-04-07T08:14:39.128Z,8.10
2023-04-07T08:17:12.465Z,8.20
2023-04-07T08:19:46.328Z,8.10
2023-04-07T08:22:21.002Z,8.10
2023-04-07T08:24:53.736Z,8.10
2023-04-07T08:27:26.607Z,8.10
2023-04-07T08:30:06.389Z,8.10
2023-04-07T08:32:44.587Z,8.10
2023-04-07T08:35:17.346Z,8.20
2023-04-07T08:37:50.336Z,8.20
2023-04-07T08:40:23.431Z,8.20
2023-04-07T08:43:00.044Z,8.30
2023-04-07T08:45:33.902Z,8.30
2023-04-07T08:48:18.905Z,8.40
2023-04-07T08:50:52.769Z,8.40
2023-04-07T08:53:31.132Z,8.40
2023-04-07T08:56:06.270Z,8.40
2023-04-07T08:58:39.878Z,8.40
2023-04-07T09:01:13.435Z,8.40
2023-04-07T09:03:48.705Z,8.40
2023-04-07T09:06:21.891Z,8.50
2023-04-07T09:08:55.373Z,8.50
2023-04-07T09:11:29.516Z,8.50
2023-04-07T09:14:02.259Z,8.50
2023-04-07T09:16:35.312Z,8.50
2023-04-07T09:19:08.354Z,8.50
2023-04-07T09:21:49.620Z,8.50
2023-04-07T09:24:27.359Z,8.50
2023-04-07T09:27:19.321Z,8.60
2023-04-07T09:30:11.537Z,8.60
2023-04-07T09:32:44.514Z,8.70
2023-04-07T09:35:17.579Z,8.70
2023-04-07T09:38:08.114Z,8.80
2023-04-07T09:40:40.950Z,8.80
2023-04-07T09:43:18.686Z,8.80
2023-04-07T09:45:51.625Z,8.90
2023-04-07T09:48:24.945Z,9.00
2023-04-07T09:51:06.637Z,9.00
2023-04-07T09:53:48.579Z,9.10
2023-04-07T09:56:24.083Z,9.20
2023-04-07T09:58:57.945Z,9.20
2023-04-07T10:01:30.883Z,9.40
2023-04-07T10:04:05.181Z,9.40
2023-04-07T10:06:39.086Z,9.50
2023-04-07T10:09:12.100Z,9.50
2023-04-07T10:11:45.619Z,9.50
2023-04-07T10:14:20.417Z,9.50
2023-04-07T10:16:53.420Z,9.50
2023-04-07T10:19:29.664Z,9.50
2023-04-07T10:22:12.799Z,9.60
2023-04-07T10:25:04.590Z,9.70
2023-04-07T10:27:42.849Z,9.80
2023-04-07T10:30:36.231Z,9.80
2023-04-07T10:33:08.968Z,9.90
2023-04-07T10:36:07.249Z,10.00
2023-04-07T10:38:41.513Z,10.00
2023-04-07T10:41:37.429Z,10.10
2023-04-07T10:44:50.647Z,10.10
2023-04-07T10:47:23.377Z,10.00
2023-04-07T10:50:19.701Z,10.00
2023-04-07T10:53:09.396Z,9.90
2023-04-07T10:55:46.254Z,10.00
2023-04-07T10:58:22.546Z,10.00
2023-04-07T11:01:01.421Z,10.00
2023-04-07T11:03:39.240Z,10.00
2023-04-07T11:06:13.823Z,10.00
2023-04-07T11:08:49.197Z,10.10
2023-04-07T11:11:39.776Z,10.10
2023-04-07T11:14:27.127Z,10.20
2023-04-07T11:17:03.815Z,10.20
2023-04-07T11:19:52.097Z,10.20
2023-04-07T11:22:29.734Z,10.20
2023-04-07T11:25:03.528Z,10.20
2023-04-07T11:27:38.811Z,10.20
2023-04-07T11:30:12.495Z,10.30
2023-04-07T11:32:49.124Z,10.30
2023-04-07T11:35:22.887Z,10.50
2023-04-07T11:38:00.244Z,10.70
2023-04-07T11:40:34.817Z,11.10
2023-04-07T11:43:18.058Z,11.30
2023-04-07T11:46:10.642Z,11.40
2023-04-07T11:48:45.046Z,11.50
2023-04-07T11:51:23.813Z,11.40
2023-04-07T11:53:57.389Z,11.30
2023-04-07T11:56:30.441Z,11.20
2023-04-07T11:59:03.281Z,11.10
2023-04-07T12:01:43.463Z,11.00
2023-04-07T12:04:17.330Z,10.90
2023-04-07T12:06:50.223Z,10.80
2023-04-07T12:09:36.070Z,10.80
2023-04-07T12:12:10.439Z,10.80
2023-04-07T12:14:43.313Z,10.80
2023-04-07T12:17:23.334Z,10.90
2023-04-07T12:19:56.474Z,11.00
2023-04-07T12:22:29.356Z,11.00
2023-04-07T12:25:02.084Z,11.30
2023-04-07T12:27:42.751Z,11.90
2023-04-07T12:30:16.037Z,12.60
2023-04-07T12:32:48.867Z,13.30
2023-04-07T12:35:21.874Z,13.90
2023-04-07T12:37:54.598Z,14.20
2023-04-07T12:40:29.327Z,14.50
2023-04-07T12:43:02.469Z,15.00
2023-04-07T12:45:35.308Z,15.10
2023-04-07T12:48:08.200Z,15.10
2023-04-07T12:50:41.558Z,15.00
2023-04-07T12:53:14.229Z,14.80
2023-04-07T12:55:50.109Z,14.50
2023-04-07T12:58:24.496Z,14.30
2023-04-07T13:00:58.352Z,14.20
2023-04-07T13:03:31.426Z,13.90
2023-04-07T13:06:04.688Z,13.60
2023-04-07T13:08:38.288Z,13.30
2023-04-07T13:11:11.223Z,13.00
2023-04-07T13:13:44.504Z,12.80
2023-04-07T13:16:17.251Z,12.60
2023-04-07T13:18:50.023Z,12.40
2023-04-07T13:21:42.981Z,12.20
2023-04-07T13:24:17.086Z,12.00
2023-04-07T13:26:55.302Z,11.90
2023-04-07T13:29:32.095Z,11.80
2023-04-07T13:32:09.433Z,11.80
2023-04-07T13:34:42.302Z,11.70
2023-04-07T13:37:16.516Z,11.70
2023-04-07T13:39:49.198Z,11.70
2023-04-07T13:42:22.138Z,11.70
2023-04-07T13:44:54.818Z,11.70
2023-04-07T13:47:29.459Z,11.70
2023-04-07T13:50:03.556Z,11.60
2023-04-07T13:52:36.286Z,11.60
2023-04-07T13:55:09.473Z,11.60
2023-04-07T14:20:41.878Z,11.70
2023-04-07T14:23:18.643Z,11.90
2023-04-07T14:25:59.855Z,11.90
2023-04-07T14:28:32.694Z,11.90
2023-04-07T14:31:06.024Z,11.90
2023-04-07T14:33:38.760Z,12.00
2023-04-07T14:36:13.934Z,12.00
2023-04-07T14:38:47.026Z,12.00
2023-04-07T14:41:20.167Z,12.00
2023-04-07T14:43:56.333Z,12.00
2023-04-07T14:46:29.273Z,12.00
2023-04-07T14:49:01.996Z,12.00
2023-04-07T14:51:35.045Z,11.90
2023-04-07T14:54:07.990Z,12.00
2023-04-07T14:56:41.205Z,12.00
2023-04-07T14:59:14.023Z,12.00
2023-04-07T15:01:46.902Z,12.00
2023-04-07T15:04:20.047Z,12.00
2023-04-07T15:06:52.772Z,12.00
2023-04-07T15:09:25.513Z,12.10
2023-04-07T15:11:58.137Z,12.10
2023-04-07T15:14:30.780Z,12.10
2023-04-07T15:17:03.509Z,12.10
2023-04-07T15:19:36.254Z,12.00
2023-04-07T15:22:08.984Z,12.00
2023-04-07T15:24:42.391Z,12.10
2023-04-07T15:27:15.851Z,12.10
2023-04-07T15:29:48.667Z,12.20
2023-04-07T15:32:21.466Z,12.20
2023-04-07T15:34:54.268Z,12.20
2023-04-07T15:37:26.990Z,12.10
2023-04-07T15:40:00.344Z,12.00
2023-04-07T15:42:41.205Z,12.00
2023-04-07T15:45:14.752Z,12.00
2023-04-07T15:47:47.566Z,12.00
2023-04-07T15:50:20.280Z,12.10
2023-04-07T15:52:53.243Z,12.00
2023-04-07T15:55:25.931Z,12.00
2023-04-07T15:57:58.921Z,12.00
2023-04-07T16:00:35.710Z,11.90
2023-04-07T16:03:08.701Z,11.80
2023-04-07T16:05:41.470Z,11.80
2023-04-07T16:08:14.265Z,11.70
2023-04-07T16:10:46.938Z,11.70
2023-04-07T16:13:19.741Z,11.60
2023-04-07T16:15:57.013Z,11.50
2023-04-07T16:18:30.282Z,11.50
2023-04-07T16:21:06.087Z,11.40
2023-04-07T16:23:38.912Z,11.40
2023-04-07T16:26:11.538Z,11.40
2023-04-07T16:28:44.371Z,11.30
2023-04-07T16:31:17.042Z,11.30
2023-04-07T16:33:52.736Z,11.30
2023-04-07T16:36:26.516Z,11.40
2023-04-07T16:38:59.310Z,11.40
2023-04-07T16:41:32.061Z,11.40
2023-04-07T16:44:04.887Z,11.30
2023-04-07T16:46:37.573Z,11.30
2023-04-07T16:49:10.804Z,11.30
2023-04-07T16:51:43.542Z,11.30
2023-04-07T16:54:16.402Z,11.30
2023-04-07T16:56:49.575Z,11.30
2023-04-07T16:59:22.375Z,11.30
2023-04-07T17:01:55.295Z,11.20
2023-04-07T17:04:28.305Z,11.20
2023-04-07T17:07:01.736Z,11.20
2023-04-07T17:09:35.099Z,11.20
2023-04-07T17:12:07.770Z,11.20
2023-04-07T17:14:40.657Z,11.10
2023-04-07T17:17:13.401Z,11.10
2023-04-07T17:19:46.416Z,11.10
2023-04-07T17:22:19.197Z,11.10
2023-04-07T17:24:52.323Z,11.10
2023-04-07T17:27:25.197Z,11.10
2023-04-07T17:29:58.127Z,11.10
2023-04-07T17:32:30.817Z,11.10
2023-04-07T17:35:03.792Z,11.10
2023-04-07T17:37:38.196Z,11.10
2023-04-07T17:40:11.398Z,11.00
2023-04-07T17:42:44.626Z,11.00
2023-04-07T17:45:17.773Z,11.00
2023-04-07T17:47:51.713Z,11.00
2023-04-07T17:50:24.370Z,11.00
2023-04-07T17:52:59.277Z,10.90
2023-04-07T17:55:33.106Z,10.90
2023-04-07T17:58:06.769Z,10.90
2023-04-07T18:00:39.701Z,10.80
2023-04-07T18:03:14.253Z,10.80
2023-04-07T18:05:47.576Z,10.80
2023-04-07T18:08:21.011Z,10.70
2023-04-07T18:10:54.064Z,10.70
2023-04-07T18:13:26.813Z,10.60
2023-04-07T18:16:00.382Z,10.60
2023-04-07T18:18:33.118Z,10.50
2023-04-07T18:21:07.080Z,10.40
2023-04-07T18:23:39.813Z,10.40
2023-04-07T18:26:12.711Z,10.30
2023-04-07T18:28:45.407Z,10.20
2023-04-07T18:31:19.919Z,10.20
2023-04-07T18:33:52.614Z,10.10
2023-04-07T18:36:27.292Z,10.10
2023-04-07T18:39:00.045Z,10.00
2023-04-07T18:41:33.060Z,10.00
2023-04-07T18:44:06.518Z,9.90
2023-04-07T18:46:39.867Z,9.90
2023-04-07T18:49:13.099Z,9.90
2023-04-07T18:51:48.069Z,9.80
2023-04-07T18:54:21.251Z,9.80
2023-04-07T18:56:54.487Z,9.70
2023-04-07T18:59:27.467Z,9.70
2023-04-07T19:02:00.416Z,9.60
2023-04-07T19:04:33.334Z,9.60
2023-04-07T19:07:06.265Z,9.50
2023-04-07T19:09:39.850Z,9.50
2023-04-07T19:12:12.572Z,9.50
2023-04-07T19:14:45.205Z,9.40
2023-04-07T19:17:17.923Z,9.40
2023-04-07T19:19:50.670Z,9.40
2023-04-07T19:22:23.375Z,9.30
2023-04-07T19:24:56.225Z,9.20
2023-04-07T19:27:29.643Z,9.20
2023-04-07T19:30:02.353Z,9.20
2023-04-07T19:32:35.191Z,9.10
2023-04-07T19:35:08.557Z,9.10
2023-04-07T19:37:41.416Z,9.10
2023-04-07T19:40:14.277Z,9.10
2023-04-07T19:42:47.098Z,9.00
2023-04-07T19:45:20.128Z,9.00
2023-04-07T19:47:53.124Z,9.00
2023-04-07T19:50:27.879Z,9.00
2023-04-07T19:53:00.563Z,8.90
2023-04-07T19:55:33.358Z,8.90
2023-04-07T19:58:06.015Z,8.80
2023-04-07T20:00:39.553Z,8.80
2023-04-07T20:03:12.322Z,8.80
2023-04-07T20:05:45.393Z,8.70
2023-04-07T20:08:18.172Z,8.70
2023-04-07T20:10:52.560Z,8.70
2023-04-07T20:13:25.386Z,8.60
2023-04-07T20:15:59.244Z,8.60
2023-04-07T20:18:32.471Z,8.60
2023-04-07T20:21:09.666Z,8.60
2023-04-07T20:23:42.366Z,8.60
2023-04-07T20:26:15.589Z,8.60
2023-04-07T20:28:48.439Z,8.50
2023-04-07T20:31:21.536Z,8.60
2023-04-07T20:33:54.372Z,8.50
2023-04-07T20:36:27.397Z,8.50
2023-04-07T20:39:00.151Z,8.50
2023-04-07T20:41:32.858Z,8.50
2023-04-07T20:44:05.658Z,8.50
2023-04-07T20:46:38.432Z,8.40
2023-04-07T20:49:11.378Z,8.40
2023-04-07T20:51:44.593Z,8.40
2023-04-07T20:54:17.486Z,8.30
2023-04-07T20:56:50.365Z,8.20
2023-04-07T20:59:23.233Z,8.10
2023-04-07T21:01:56.649Z,8.10
2023-04-07T21:04:29.558Z,8.00
2023-04-07T21:07:02.352Z,8.00
2023-04-07T21:09:35.338Z,8.00
2023-04-07T21:12:08.092Z,7.90
2023-04-07T21:14:41.030Z,7.90
2023-04-07T21:17:13.668Z,7.80
2023-04-07T21:19:46.656Z,7.70
2023-04-07T21:22:19.331Z,7.70
2023-04-07T21:24:57.181Z,7.60
2023-04-07T21:27:30.192Z,7.50
2023-04-07T21:30:07.043Z,7.50
2023-04-07T21:32:40.429Z,7.40
2023-04-07T21:35:13.187Z,7.40
2023-04-07T21:37:46.326Z,7.30
2023-04-07T21:40:19.290Z,7.30
2023-04-07T21:42:52.266Z,7.20
2023-04-07T21:45:24.991Z,7.20
2023-04-07T21:47:57.855Z,7.20
2023-04-07T21:50:31.002Z,7.10
2023-04-07T21:53:03.920Z,7.00
2023-04-07T21:55:36.610Z,7.00
2023-04-07T21:58:09.787Z,7.00
2023-04-07T22:00:42.482Z,7.00
2023-04-07T22:03:16.625Z,6.90
2023-04-07T22:05:49.473Z,6.90
2023-04-07T22:08:22.174Z,6.90
2023-04-07T22:10:55.010Z,6.90
2023-04-07T22:13:27.703Z,6.70
2023-04-07T22:16:02.155Z,6.70
2023-04-07T22:18:34.895Z,6.60
2023-04-07T22:21:07.596Z,6.60
2023-04-07T22:23:40.461Z,6.60
2023-04-07T22:26:13.669Z,6.60
2023-04-07T22:28:46.564Z,6.60
2023-04-07T22:31:19.290Z,6.50
2023-04-07T22:33:52.077Z,6.50
2023-04-07T22:36:24.883Z,6.40
2023-04-07T22:38:57.550Z,6.40
2023-04-07T22:41:30.614Z,6.50
2023-04-07T22:44:03.456Z,6.50
2023-04-07T22:46:36.294Z,6.50
2023-04-07T22:49:09.012Z,6.50
2023-04-07T22:51:41.728Z,6.50
2023-04-07T22:54:15.868Z,6.50
2023-04-07T22:56:48.551Z,6.50
2023-04-07T22:59:21.375Z,6.50
2023-04-07T23:01:56.364Z,6.50
2023-04-07T23:04:30.920Z,6.40
2023-04-07T23:07:03.578Z,6.30
2023-04-07T23:09:36.623Z,6.30
2023-04-07T23:12:09.310Z,6.20
2023-04-07T23:14:42.100Z,6.20
2023-04-07T23:17:14.735Z,6.10
2023-04-07T23:24:53.494Z,6.10
2023-04-07T23:32:32.273Z,6.10
2023-04-07T23:40:12.741Z,6.00
2023-04-07T23:42:45.610Z,5.80
2023-04-07T23:45:20.105Z,5.80
2023-04-07T23:47:53.570Z,5.70
2023-04-07T23:50:27.316Z,5.70
2023-04-07T23:53:00.355Z,5.70
2023-04-07T23:55:33.124Z,5.60
2023-04-07T23:58:05.962Z,5.60
